Hickory Valley, Louisiana
Current Conditions -  °F | °C
As of 8:15 PM on Sunday 25 Jan 2015 (Local Time) from KRSN Reporting Station
Clear Clear  
Wind Chill: 55°   Ceiling: Unl
Heat Index: 55°   Visibility: 10mi
Dew Point: 33°   Wind: 6mph
Humidity: 44%   Direction: 320°NW
Pressure: 30.01"   Gusts: NA
Location:  32.0547°N, 92.4144°W
Report Text: KRSN 260215Z AUTO 32005KT 10SM CLR 13/01 A3001 RMK AO2 T01260005
Loading
Personal Weather Stations






























Interactive Weather Map New forecast layout! Learn more

10-Day Weather Forecast

Advertisements
Track Severe Weather on mobile